Time;durP1;ratioP1;P1;durP2;ratioP2;P2;SDS_P1;SDS_P2;PMS_P1;PMS_P2;Temp;Humidity;BMP_temperature;BMP_pressure;BME280_temperature;BME280_humidity;BME280_pressure;Samples;Min_cycle;Max_cycle;Signal;HPM_P1;HPM_P2
2021/07/15 00:02:16;;;;;;;13.75;4.20;;;;;;;21.65;64.90;98598.34;263282;1096;114673;-72
2021/07/15 00:07:19;;;;;;;;;;;;;;;21.68;65.20;98591.74;263140;1095;114803;-72
2021/07/15 00:12:23;;;;;;;8.97;4.00;;;;;;;21.71;65.24;98585.97;263276;1095;101859;-74
2021/07/15 00:17:27;;;;;;;10.33;4.30;;;;;;;21.82;65.59;98563.89;263248;1095;114478;-73
2021/07/15 00:22:30;;;;;;;11.63;4.70;;;;;;;21.86;65.69;98578.77;262521;1096;114856;-75
2021/07/15 00:27:34;;;;;;;14.85;4.73;;;;;;;21.83;65.73;98597.24;263215;1094;114785;-73
2021/07/15 00:32:38;;;;;;;10.90;3.95;;;;;;;21.76;65.73;98616.06;262986;1095;114549;-73
2021/07/15 00:37:43;;;;;;;9.03;4.63;;;;;;;21.73;65.95;98654.34;263241;1095;115012;-74
2021/07/15 00:42:46;;;;;;;11.40;4.23;;;;;;;21.72;66.18;98745.59;263240;1095;114605;-71
2021/07/15 00:47:50;;;;;;;9.68;4.35;;;;;;;21.66;66.25;98746.28;263278;1096;115724;-71
2021/07/15 00:52:54;;;;;;;7.98;4.20;;;;;;;21.59;66.20;98749.86;262296;1095;114690;-77
2021/07/15 00:57:58;;;;;;;9.90;4.13;;;;;;;21.55;66.39;98783.73;263213;1095;114153;-72
2021/07/15 01:03:03;;;;;;;8.73;3.97;;;;;;;21.55;66.72;98776.45;263056;1095;114874;-70
2021/07/15 01:08:08;;;;;;;10.53;4.50;;;;;;;21.58;67.03;98769.84;263263;1094;114590;-76
2021/07/15 01:13:35;;;;;;;12.57;4.70;;;;;;;21.63;67.00;98697.88;263130;1095;115044;-83
2021/07/15 01:18:58;;;;;;;5.87;3.60;;;;;;;21.69;67.21;98629.47;262834;1095;114987;-73
2021/07/15 01:24:23;;;;;;;8.67;3.63;;;;;;;21.70;67.09;98604.09;263070;1094;114670;-74
2021/07/15 01:29:50;;;;;;;8.67;3.77;;;;;;;21.71;67.36;98640.15;261996;1093;114896;-75
2021/07/15 01:34:58;;;;;;;10.53;4.48;;;;;;;21.66;67.29;98673.16;263195;1095;114978;-71
2021/07/15 01:40:04;;;;;;;8.20;3.60;;;;;;;21.61;67.53;98636.80;262276;1094;115051;-72
2021/07/15 01:45:08;;;;;;;11.30;4.10;;;;;;;21.65;67.64;98635.43;262585;1095;114657;-74
2021/07/15 01:50:12;;;;;;;9.48;4.10;;;;;;;21.65;67.68;98668.77;263211;1096;114565;-71
2021/07/15 01:55:16;;;;;;;9.05;4.65;;;;;;;21.66;67.60;98675.86;263193;1095;114236;-75
2021/07/15 02:00:21;;;;;;;11.25;5.70;;;;;;;21.66;67.92;98662.33;262176;1096;114949;-74
2021/07/15 02:05:25;;;;;;;6.73;4.70;;;;;;;21.63;67.69;98641.00;263241;1093;115352;-75
2021/07/15 02:10:30;;;;;;;12.85;4.33;;;;;;;21.64;68.05;98622.91;263078;1096;114841;-72
2021/07/15 02:15:35;;;;;;;10.20;4.13;;;;;;;21.63;67.94;98634.75;262807;1096;115356;-72
2021/07/15 02:20:41;;;;;;;8.37;3.90;;;;;;;21.61;68.13;98601.59;262510;1094;115084;-73
2021/07/15 02:25:48;;;;;;;8.98;3.48;;;;;;;21.62;68.31;98592.44;263281;1093;114861;-74
2021/07/15 02:31:03;;;;;;;5.73;3.07;;;;;;;21.62;68.12;98590.58;263105;1095;114629;-73
2021/07/15 02:36:08;;;;;;;7.67;3.30;;;;;;;21.66;68.27;98585.64;263221;1095;114873;-75
2021/07/15 02:41:11;;;;;;;7.83;3.43;;;;;;;21.63;68.19;98594.95;262906;1096;114638;-74
2021/07/15 02:46:21;;;;;;;7.57;3.20;;;;;;;21.60;68.27;98635.09;261067;1095;113539;-72
2021/07/15 02:51:49;;;;;;;6.97;3.20;;;;;;;21.56;68.45;98680.64;261033;1095;114228;-71
2021/07/15 02:57:32;;;;;;;7.27;3.57;;;;;;;21.56;68.51;98668.97;261285;1096;114611;-71
2021/07/15 03:03:03;;;;;;;6.73;3.95;;;;;;;21.49;68.51;98682.36;261022;1095;114608;-71
2021/07/15 03:08:11;;;;;;;10.07;4.30;;;;;;;21.36;68.55;98733.48;260763;1095;114913;-72
2021/07/15 03:13:15;;;;;;;10.73;4.63;;;;;;;21.42;69.12;98651.58;261471;1095;114624;-74
2021/07/15 03:18:20;;;;;;;;;;;;;;;21.45;69.13;98679.16;262973;1095;114954;-73
2021/07/15 03:23:25;;;;;;;9.53;5.00;;;;;;;21.45;69.30;98633.13;263052;1096;101191;-74
2021/07/15 03:28:32;;;;;;;9.57;4.43;;;;;;;21.46;69.18;98634.80;263278;1095;114321;-73
2021/07/15 03:33:38;;;;;;;13.03;4.90;;;;;;;21.48;69.23;98654.44;262363;1095;114729;-72
2021/07/15 03:38:45;;;;;;;11.07;4.33;;;;;;;21.52;69.53;98614.31;263185;1096;114523;-75
2021/07/15 03:43:50;;;;;;;10.50;4.33;;;;;;;21.53;69.34;98580.80;263191;1093;114605;-72
2021/07/15 03:48:54;;;;;;;8.33;4.23;;;;;;;21.54;69.45;98527.51;263277;1095;115136;-70
2021/07/15 03:53:59;;;;;;;11.37;4.00;;;;;;;21.55;69.21;98558.97;263001;1095;114345;-73
2021/07/15 03:59:04;;;;;;;7.30;3.60;;;;;;;21.53;69.62;98518.52;263141;1096;114685;-71
2021/07/15 04:04:12;;;;;;;7.53;3.80;;;;;;;21.58;69.35;98545.08;263178;1093;114514;-71
2021/07/15 04:09:16;;;;;;;11.60;4.53;;;;;;;21.56;69.31;98577.73;263125;1096;114311;-74
2021/07/15 04:14:42;;;;;;;8.53;4.30;;;;;;;21.72;70.60;98572.23;263135;1095;114712;-75
2021/07/15 04:19:47;;;;;;;;;;;;;;;22.21;70.99;98538.57;263191;1095;114201;-77
2021/07/15 04:24:51;;;;;;;14.70;7.40;;;;;;;22.46;70.14;98563.63;262952;1096;101838;-74
2021/07/15 04:30:05;;;;;;;10.25;6.58;;;;;;;22.61;69.77;98594.33;263211;1093;114606;-70
2021/07/15 04:35:13;;;;;;;14.75;8.10;;;;;;;22.75;69.36;98636.09;262928;1096;114512;-73
2021/07/15 04:40:20;;;;;;;23.13;15.00;;;;;;;22.73;68.98;98627.31;263208;1094;114850;-72
2021/07/15 04:45:25;;;;;;;26.43;14.00;;;;;;;22.61;68.74;98521.09;263190;1095;115318;-68
2021/07/15 04:50:32;;;;;;;25.13;12.43;;;;;;;22.42;68.39;98589.44;262976;1096;115222;-69
2021/07/15 04:55:36;;;;;;;20.43;12.53;;;;;;;;;;263064;1094;114673;-68
2021/07/15 05:00:40;;;;;;;19.63;11.35;;;;;;;22.20;68.63;98570.27;263394;1095;101020;-70
2021/07/15 05:05:44;;;;;;;;;;;;;;;22.13;69.19;98563.84;263001;1095;115165;-69
2021/07/15 05:10:48;;;;;;;29.47;14.10;;;;;;;22.03;69.35;98586.80;263279;1094;101167;-67
2021/07/15 05:15:53;;;;;;;29.28;16.45;;;;;;;22.05;69.69;98557.66;263174;1096;115227;-68
2021/07/15 05:20:57;;;;;;;30.43;18.83;;;;;;;22.00;69.94;98674.70;262865;1096;115087;-67
2021/07/15 05:26:01;;;;;;;16.28;8.70;;;;;;;21.78;69.69;98786.58;263208;1094;114616;-67
2021/07/15 05:31:04;;;;;;;15.00;8.13;;;;;;;21.69;70.23;98683.64;263238;1096;115411;-70
2021/07/15 05:36:11;;;;;;;15.50;7.08;;;;;;;21.76;70.60;98769.64;263191;1094;115293;-71
2021/07/15 05:41:15;;;;;;;21.10;8.63;;;;;;;21.83;70.88;98673.09;263143;1095;115251;-66
2021/07/15 05:46:19;;;;;;;11.45;7.63;;;;;;;21.85;70.66;98684.61;263171;1094;114979;-70
2021/07/15 05:51:22;;;;;;;14.28;6.80;;;;;;;21.78;70.20;98689.05;263240;1095;115215;-69
2021/07/15 05:56:26;;;;;;;14.25;5.98;;;;;;;21.83;70.53;98692.91;262376;1095;114971;-67
2021/07/15 06:01:29;;;;;;;20.00;8.05;;;;;;;21.89;70.87;98659.69;262846;1095;115259;-69
2021/07/15 06:06:33;;;;;;;16.18;8.08;;;;;;;21.93;70.89;98650.18;263212;1096;114866;-71
2021/07/15 06:11:37;;;;;;;13.80;6.55;;;;;;;22.01;71.00;98660.16;263211;1096;114859;-71
2021/07/15 06:16:40;;;;;;;11.10;6.68;;;;;;;22.09;70.96;98670.94;263176;1095;115149;-70
2021/07/15 06:21:44;;;;;;;12.28;7.18;;;;;;;22.17;71.03;98662.78;263078;1095;115759;-68
2021/07/15 06:26:48;;;;;;;12.80;7.90;;;;;;;22.28;70.99;98658.84;262667;1094;115257;-70
2021/07/15 06:31:52;;;;;;;14.15;7.48;;;;;;;22.39;71.22;98652.16;263129;1095;115042;-69
2021/07/15 06:36:56;;;;;;;13.83;6.50;;;;;;;22.50;71.33;98629.20;263188;1096;114738;-74
2021/07/15 06:42:00;;;;;;;12.20;7.60;;;;;;;22.61;71.46;98615.20;262523;1095;115188;-69
2021/07/15 06:47:04;;;;;;;19.80;9.23;;;;;;;22.75;71.72;98614.39;263197;1095;115043;-69
2021/07/15 06:52:09;;;;;;;13.20;7.40;;;;;;;22.87;71.60;98641.94;263099;1094;115014;-70
2021/07/15 06:57:12;;;;;;;16.75;9.28;;;;;;;22.97;71.36;98704.14;263116;1095;114998;-70
2021/07/15 07:02:16;;;;;;;25.68;14.63;;;;;;;22.85;70.67;98785.09;263137;1095;114925;-72
2021/07/15 07:07:20;;;;;;;13.80;8.90;;;;;;;22.80;70.65;98820.08;263000;1095;115596;-69
2021/07/15 07:12:23;;;;;;;13.88;6.75;;;;;;;22.60;70.60;98815.09;263145;1093;115662;-69
2021/07/15 07:17:27;;;;;;;16.28;6.78;;;;;;;22.56;70.56;98818.34;263135;1095;116201;-70
2021/07/15 07:22:30;;;;;;;11.98;6.43;;;;;;;22.52;70.70;98806.13;263138;1095;115167;-70
2021/07/15 07:27:34;;;;;;;11.38;4.93;;;;;;;22.42;70.19;98793.66;263085;1094;115883;-69
2021/07/15 07:32:38;;;;;;;8.45;4.43;;;;;;;22.26;69.61;98823.55;263081;1096;115132;-71
2021/07/15 07:37:43;;;;;;;9.90;4.70;;;;;;;22.06;69.81;98865.59;262455;1095;115807;-74
2021/07/15 07:42:47;;;;;;;15.33;7.27;;;;;;;21.95;70.21;98855.97;263091;1095;115450;-71
2021/07/15 07:47:51;;;;;;;10.40;4.68;;;;;;;21.87;70.07;98850.54;263128;1096;114811;-71
2021/07/15 07:52:57;;;;;;;6.63;3.58;;;;;;;21.79;70.19;98828.89;262821;1095;115136;-69
2021/07/15 07:58:01;;;;;;;13.15;5.08;;;;;;;21.80;70.58;98825.16;263150;1093;115267;-70
2021/07/15 08:03:05;;;;;;;8.75;4.65;;;;;;;21.70;70.11;98871.39;260947;1094;115204;-70
2021/07/15 08:08:11;;;;;;;7.95;4.83;;;;;;;21.45;69.76;98882.23;262610;1096;114401;-70
2021/07/15 08:13:16;;;;;;;13.37;4.50;;;;;;;21.32;70.05;98834.98;263241;1094;114465;-70
2021/07/15 08:18:19;;;;;;;9.88;4.10;;;;;;;21.19;70.27;98813.81;263174;1094;115970;-70
2021/07/15 08:23:23;;;;;;;11.28;4.23;;;;;;;21.19;70.81;98809.25;263258;1095;114655;-69
2021/07/15 08:28:27;;;;;;;11.35;5.68;;;;;;;21.16;70.81;98757.32;263091;1096;114929;-70
2021/07/15 08:33:30;;;;;;;8.70;3.70;;;;;;;21.08;70.66;98714.03;263234;1094;114782;-69
2021/07/15 08:38:34;;;;;;;5.43;3.00;;;;;;;21.03;70.75;98709.14;262355;1094;115321;-69
2021/07/15 08:43:38;;;;;;;6.65;3.38;;;;;;;21.05;71.48;98704.39;263190;1095;115250;-70
2021/07/15 08:48:45;;;;;;;6.10;2.90;;;;;;;21.13;71.17;98708.97;263188;1095;114664;-70
2021/07/15 08:53:49;;;;;;;6.90;2.40;;;;;;;21.21;71.31;98701.67;263237;1095;114841;-70
2021/07/15 08:58:53;;;;;;;6.78;2.30;;;;;;;21.35;71.31;98721.81;263140;1095;115420;-69
2021/07/15 09:03:57;;;;;;;8.33;2.85;;;;;;;21.37;71.08;98722.50;263181;1096;114524;-69
2021/07/15 09:09:01;;;;;;;5.80;3.80;;;;;;;21.36;71.13;98719.95;263198;1096;114856;-69
2021/07/15 09:14:19;;;;;;;3.68;3.13;;;;;;;21.37;71.37;98722.50;263162;1094;115659;-70
2021/07/15 09:19:24;;;;;;;7.03;3.20;;;;;;;21.41;71.21;98725.70;263166;1096;114901;-70
2021/07/15 09:24:32;;;;;;;7.63;4.20;;;;;;;21.42;71.41;98752.59;263140;1095;114912;-69
2021/07/15 09:29:36;;;;;;;9.57;4.07;;;;;;;21.49;71.97;98761.72;262581;1095;114710;-69
2021/07/15 09:34:42;;;;;;;6.60;3.80;;;;;;;21.59;72.90;98756.13;262975;1095;114433;-68
2021/07/15 09:39:48;;;;;;;5.85;3.75;;;;;;;21.68;71.95;98778.63;261695;1096;114772;-69
2021/07/15 09:44:53;;;;;;;7.97;4.33;;;;;;;21.81;72.24;98781.66;263090;1096;115296;-69
2021/07/15 09:49:56;;;;;;;6.53;3.83;;;;;;;21.89;71.99;98756.39;263013;1096;115139;-68
2021/07/15 09:55:23;;;;;;;7.35;3.50;;;;;;;21.93;71.82;98730.63;263209;1095;115006;-69
2021/07/15 10:00:38;;;;;;;6.10;3.53;;;;;;;21.90;71.56;98726.40;262917;1096;114722;-69
2021/07/15 10:05:49;;;;;;;5.00;2.90;;;;;;;21.94;71.70;98732.31;263040;1096;114833;-69
2021/07/15 10:11:13;;;;;;;4.47;2.70;;;;;;;21.91;71.68;98711.85;262942;1094;114809;-71
2021/07/15 10:16:17;;;;;;;6.57;2.07;;;;;;;21.92;71.62;98715.41;263163;1096;114759;-69
2021/07/15 10:21:30;;;;;;;3.93;2.33;;;;;;;22.05;72.11;98701.30;263135;1096;114685;-67
2021/07/15 10:26:33;;;;;;;3.50;2.57;;;;;;;22.26;72.29;98692.57;263189;1096;115060;-70
2021/07/15 10:31:37;;;;;;;4.08;2.30;;;;;;;22.43;72.16;98667.04;263154;1093;114615;-70
2021/07/15 10:36:42;;;;;;;5.93;2.18;;;;;;;22.53;71.82;98669.52;262146;1096;114760;-67
2021/07/15 10:41:50;;;;;;;2.93;2.10;;;;;;;22.59;71.63;98649.81;263110;1094;114841;-70
2021/07/15 10:46:56;;;;;;;4.97;2.67;;;;;;;22.65;71.93;98665.34;263096;1096;115683;-72
2021/07/15 10:52:03;;;;;;;5.13;3.00;;;;;;;22.74;71.97;98672.40;263037;1096;115820;-67
2021/07/15 10:57:08;;;;;;;15.00;11.30;;;;;;;22.87;72.01;98690.78;263137;1095;114999;-66
2021/07/15 11:02:26;;;;;;;7.65;4.35;;;;;;;22.94;71.85;98704.50;262390;1096;115444;-67
2021/07/15 11:07:31;;;;;;;7.97;4.43;;;;;;;23.08;71.46;98700.98;263229;1096;115321;-67
2021/07/15 11:12:36;;;;;;;16.70;6.73;;;;;;;23.27;71.89;98695.03;263180;1093;114441;-65
2021/07/15 11:17:49;;;;;;;9.17;5.80;;;;;;;23.51;71.85;98695.81;263051;1096;115571;-66
2021/07/15 11:22:55;;;;;;;11.53;5.77;;;;;;;23.69;71.47;98706.34;263114;1096;115313;-65
2021/07/15 11:28:04;;;;;;;10.80;5.90;;;;;;;23.83;70.71;98698.17;263143;1095;116381;-68
2021/07/15 11:33:22;;;;;;;17.37;7.77;;;;;;;23.96;70.90;98702.95;263141;1094;115299;-67
2021/07/15 11:38:29;;;;;;;14.88;8.85;;;;;;;24.01;70.46;98684.17;262676;1095;115203;-74
2021/07/15 11:43:47;;;;;;;15.90;9.40;;;;;;;23.99;70.01;98691.70;261079;1095;115010;-77
2021/07/15 11:49:03;;;;;;;18.37;9.77;;;;;;;23.96;69.93;98680.36;263141;1096;114892;-70
2021/07/15 11:54:30;;;;;;;24.70;13.40;;;;;;;24.01;70.01;98672.46;263110;1095;114888;-78
2021/07/15 11:59:49;;;;;;;21.63;11.33;;;;;;;24.16;70.79;98661.58;263022;1095;115160;-72
2021/07/15 12:05:25;;;;;;;17.23;9.57;;;;;;;24.31;70.46;98663.20;262997;1096;115203;-76
2021/07/15 12:10:30;;;;;;;15.60;8.80;;;;;;;24.42;70.23;98659.19;263143;1095;114944;-73
2021/07/15 12:15:35;;;;;;;15.98;8.58;;;;;;;24.50;70.09;98666.38;263185;1095;115188;-72
2021/07/15 12:20:46;;;;;;;13.77;8.93;;;;;;;24.55;69.82;98648.41;263060;1095;114752;-72
2021/07/15 12:25:53;;;;;;;17.03;9.10;;;;;;;24.64;69.50;98640.13;263022;1095;115182;-73
2021/07/15 12:31:03;;;;;;;13.50;8.70;;;;;;;24.83;70.07;98633.17;263274;1095;115142;-75
2021/07/15 12:36:21;;;;;;;16.03;10.13;;;;;;;24.96;69.65;98639.56;261939;1095;115144;-71
2021/07/15 12:41:27;;;;;;;20.27;12.57;;;;;;;25.06;69.82;98650.11;262976;1096;115466;-73
2021/07/15 12:46:37;;;;;;;25.30;14.10;;;;;;;25.15;69.68;98646.24;263218;1095;115207;-73
2021/07/15 12:51:49;;;;;;;22.70;13.23;;;;;;;25.20;69.34;98642.91;263075;1095;115641;-74
2021/07/15 12:56:54;;;;;;;29.53;13.90;;;;;;;25.37;69.84;98635.27;263193;1096;115484;-71
2021/07/15 13:02:00;;;;;;;22.17;14.90;;;;;;;25.61;69.65;98632.09;262442;1095;114931;-74
2021/07/15 13:07:09;;;;;;;35.05;14.28;;;;;;;25.63;68.90;98642.77;263245;1095;114793;-72
2021/07/15 13:17:46;;;;;;;26.33;14.17;;;;;;;25.72;68.41;98641.56;263145;1095;114977;-74
2021/07/15 13:22:53;;;;;;;22.90;12.63;;;;;;;26.10;69.00;98630.22;262995;1095;115725;-74
2021/07/15 13:28:06;;;;;;;20.83;14.50;;;;;;;26.11;68.09;98620.98;262936;1095;115222;-71
2021/07/15 13:33:11;;;;;;;21.30;13.80;;;;;;;26.19;68.13;98616.19;263269;1096;115794;-72
2021/07/15 13:38:16;;;;;;;18.90;12.13;;;;;;;26.48;67.89;98611.44;263161;1096;115095;-68
2021/07/15 13:43:26;;;;;;;27.07;13.87;;;;;;;26.87;67.96;98616.09;263062;1094;114910;-73
2021/07/15 13:48:30;;;;;;;24.73;13.07;;;;;;;27.19;67.32;98624.50;263143;1095;114672;-74
2021/07/15 13:53:34;;;;;;;20.13;12.90;;;;;;;27.47;67.15;98624.22;263224;1093;114915;-71
2021/07/15 13:58:40;;;;;;;19.33;13.33;;;;;;;27.74;66.85;98637.82;263146;1093;115443;-73
2021/07/15 14:03:43;;;;;;;26.13;16.17;;;;;;;27.75;66.04;98650.43;263281;1093;115661;-74
2021/07/15 14:08:58;;;;;;;23.38;14.53;;;;;;;27.72;65.53;98643.52;262932;1096;115589;-71
2021/07/15 14:14:01;;;;;;;20.68;11.08;;;;;;;27.71;65.63;98633.61;263146;1096;115212;-72
2021/07/15 14:19:09;;;;;;;21.70;12.18;;;;;;;27.74;65.50;98629.61;263177;1095;115507;-72
2021/07/15 14:24:13;;;;;;;22.60;13.10;;;;;;;27.75;65.12;98634.89;262892;1093;115007;-71
2021/07/15 14:29:17;;;;;;;19.43;13.98;;;;;;;27.77;65.19;98621.84;261170;1095;116148;-71
2021/07/15 14:34:21;;;;;;;27.18;17.68;;;;;;;27.73;64.71;98611.53;263242;1094;115100;-72
2021/07/15 14:39:26;;;;;;;32.83;22.37;;;;;;;27.62;64.84;98617.69;263245;1093;115257;-72
2021/07/15 14:44:30;;;;;;;24.27;13.57;;;;;;;27.58;64.92;98611.78;263187;1095;115178;-72
2021/07/15 14:49:33;;;;;;;39.83;29.93;;;;;;;27.49;64.62;98597.52;263000;1095;115484;-74
2021/07/15 14:54:37;;;;;;;24.35;15.35;;;;;;;27.25;63.93;98590.86;263190;1095;115384;-71
2021/07/15 14:59:41;;;;;;;22.93;13.08;;;;;;;27.08;64.73;98584.14;262721;1095;115516;-72
2021/07/15 15:04:44;;;;;;;20.98;11.80;;;;;;;26.97;64.56;98593.82;263186;1094;115102;-69
2021/07/15 15:09:48;;;;;;;19.50;12.48;;;;;;;26.85;64.46;98588.14;263115;1096;115679;-69
2021/07/15 15:14:52;;;;;;;36.30;23.88;;;;;;;26.78;65.14;98584.58;262930;1096;115247;-75
2021/07/15 15:19:56;;;;;;;30.30;22.77;;;;;;;26.73;65.23;98575.33;263136;1095;115528;-71
2021/07/15 15:25:00;;;;;;;16.63;14.17;;;;;;;26.70;64.99;98559.36;263174;1093;115871;-71
2021/07/15 15:30:09;;;;;;;23.02;15.58;;;;;;;26.63;64.84;98548.44;263018;1095;115267;-71
2021/07/15 15:35:14;;;;;;;19.37;11.17;;;;;;;26.59;65.61;98541.73;262846;1095;115236;-74
2021/07/15 15:40:18;;;;;;;18.83;15.35;;;;;;;26.58;65.01;98542.79;262908;1094;114927;-75
2021/07/15 15:45:22;;;;;;;23.43;13.73;;;;;;;26.56;64.98;98544.88;263157;1096;114928;-73
2021/07/15 15:50:30;;;;;;;31.28;15.43;;;;;;;26.48;64.87;98556.85;262492;1096;115330;-71
2021/07/15 15:55:38;;;;;;;18.57;12.10;;;;;;;26.37;64.88;98562.91;261323;1095;115112;-69
2021/07/15 16:00:47;;;;;;;21.40;12.60;;;;;;;26.31;65.04;98561.84;261352;1096;115444;-71
2021/07/15 16:05:55;;;;;;;18.73;13.27;;;;;;;26.26;65.92;98555.34;262887;1095;114940;-73
2021/07/15 16:10:58;;;;;;;27.83;14.85;;;;;;;26.29;66.08;98553.05;263125;1096;116116;-70
2021/07/15 16:16:02;;;;;;;19.37;14.70;;;;;;;26.27;65.77;98557.86;262559;1095;116298;-67
2021/07/15 16:21:08;;;;;;;19.05;12.88;;;;;;;26.19;66.15;98564.36;262849;1095;114814;-69
2021/07/15 16:26:12;;;;;;;21.87;13.43;;;;;;;26.16;65.91;98570.23;263086;1095;116675;-68
2021/07/15 16:31:15;;;;;;;24.13;16.40;;;;;;;26.14;66.19;98564.13;263146;1095;115946;-68
2021/07/15 16:36:19;;;;;;;21.23;14.95;;;;;;;26.14;66.24;98558.67;263112;1095;115592;-69
2021/07/15 16:41:23;;;;;;;37.38;31.40;;;;;;;26.13;65.95;98559.72;263152;1096;115624;-72
2021/07/15 16:46:26;;;;;;;19.95;14.48;;;;;;;26.08;66.09;98562.22;263159;1096;115160;-71
2021/07/15 16:51:30;;;;;;;26.30;20.65;;;;;;;26.04;66.47;98551.94;262424;1096;115393;-70
2021/07/15 16:56:33;;;;;;;25.48;19.78;;;;;;;25.97;66.23;98540.17;262883;1095;116084;-67
2021/07/15 17:01:37;;;;;;;21.33;16.03;;;;;;;25.90;66.26;98542.88;262952;1095;115489;-70
2021/07/15 17:06:42;;;;;;;23.17;17.97;;;;;;;25.87;66.51;98551.47;263128;1095;115214;-71
2021/07/15 17:11:45;;;;;;;159.58;137.43;;;;;;;25.86;66.66;98557.98;263076;1095;115332;-73
2021/07/15 17:16:49;;;;;;;32.00;21.38;;;;;;;25.88;66.95;98584.00;263057;1095;115683;-72
2021/07/15 17:21:53;;;;;;;197.13;147.50;;;;;;;25.91;67.02;98578.11;260834;1095;115589;-72
2021/07/15 17:26:57;;;;;;;30.80;22.00;;;;;;;25.96;66.96;98582.97;261163;1093;115421;-70
2021/07/15 17:32:01;;;;;;;26.67;18.27;;;;;;;25.88;66.82;98573.09;260124;1094;114977;-72
2021/07/15 17:37:05;;;;;;;25.90;19.55;;;;;;;25.81;66.97;98587.73;262586;1093;114766;-74
2021/07/15 17:42:08;;;;;;;16.95;13.43;;;;;;;25.81;66.91;98595.91;263114;1093;115667;-72
2021/07/15 17:47:13;;;;;;;23.70;12.95;;;;;;;25.82;67.27;98584.81;261727;1095;115845;-71
2021/07/15 17:52:17;;;;;;;21.25;15.00;;;;;;;25.82;67.24;98583.98;261257;1094;115022;-71
2021/07/15 17:57:20;;;;;;;166.20;139.30;;;;;;;25.78;67.10;98580.79;261935;1093;114922;-73
2021/07/15 18:02:24;;;;;;;23.53;18.60;;;;;;;25.73;67.08;98586.00;262176;1094;115109;-72
2021/07/15 18:07:29;;;;;;;18.97;11.97;;;;;;;25.70;67.27;98592.69;261048;1095;115195;-71
2021/07/15 18:12:32;;;;;;;23.85;19.50;;;;;;;25.67;67.36;98574.02;262883;1095;115777;-71
2021/07/15 18:17:37;;;;;;;91.03;79.38;;;;;;;25.64;67.46;98558.06;263194;1092;115408;-73
2021/07/15 18:22:41;;;;;;;26.53;16.00;;;;;;;25.58;67.75;98555.34;262952;1095;115924;-72
2021/07/15 18:27:45;;;;;;;25.83;13.33;;;;;;;25.51;67.54;98557.17;261388;1095;115118;-72
2021/07/15 18:32:49;;;;;;;18.00;13.90;;;;;;;25.46;67.58;98560.52;263035;1095;115074;-72
2021/07/15 18:37:53;;;;;;;24.83;20.20;;;;;;;25.49;68.03;98557.38;263186;1093;115304;-71
2021/07/15 18:42:58;;;;;;;422.53;313.60;;;;;;;25.47;67.39;98559.45;263156;1095;115524;-71
2021/07/15 18:48:02;;;;;;;32.50;22.97;;;;;;;25.44;67.74;98565.31;263230;1095;115477;-73
2021/07/15 18:53:07;;;;;;;;;;;;;;;25.40;67.72;98566.77;261363;1096;115383;-70
2021/07/15 18:58:13;;;;;;;;;;;;;;;25.32;67.94;98591.46;261108;1095;103006;-70
2021/07/15 19:03:19;;;;;;;44.50;37.83;;;;;;;25.25;67.97;98603.16;261550;1095;102930;-71
2021/07/15 19:08:28;;;;;;;48.13;38.03;;;;;;;25.26;68.42;98609.44;261074;1096;115326;-70
2021/07/15 19:13:36;;;;;;;51.73;38.43;;;;;;;25.23;68.24;98616.12;260834;1096;115179;-72
2021/07/15 19:18:44;;;;;;;250.87;177.90;;;;;;;25.18;68.62;98618.61;261264;1094;114975;-71
2021/07/15 19:23:51;;;;;;;20.63;14.73;;;;;;;25.15;68.42;98632.63;261081;1092;115235;-72
2021/07/15 19:28:55;;;;;;;22.07;14.37;;;;;;;25.11;68.18;98641.38;261421;1095;115169;-68
2021/07/15 19:33:59;;;;;;;;;;;;;;;25.06;68.41;98639.22;262666;1096;114945;-72
2021/07/15 19:39:04;;;;;;;;;;;;;;;24.95;68.34;98637.05;262841;1093;101358;-72
2021/07/15 19:44:10;;;;;;;23.33;14.80;;;;;;;24.84;68.38;98630.27;261712;1094;102982;-69
2021/07/15 19:49:14;;;;;;;20.47;13.57;;;;;;;24.76;68.70;98631.25;262004;1096;114989;-68
2021/07/15 19:54:19;;;;;;;19.37;13.60;;;;;;;24.73;68.95;98626.20;261065;1096;115072;-72
2021/07/15 19:59:22;;;;;;;26.98;14.08;;;;;;;24.72;68.90;98616.33;263207;1093;115148;-76
2021/07/15 20:04:26;;;;;;;20.20;15.28;;;;;;;24.68;68.90;98614.20;263236;1093;115469;-73
2021/07/15 20:09:30;;;;;;;24.18;13.70;;;;;;;24.64;68.94;98621.08;261903;1094;115501;-71
2021/07/15 20:14:34;;;;;;;22.25;14.03;;;;;;;24.60;69.06;98626.08;261409;1096;115104;-72
2021/07/15 20:19:38;;;;;;;21.23;15.63;;;;;;;24.61;69.35;98632.36;262649;1093;115143;-76
2021/07/15 20:24:41;;;;;;;25.33;15.73;;;;;;;24.58;69.31;98633.58;263006;1096;115069;-71
2021/07/15 20:29:47;;;;;;;23.05;16.45;;;;;;;24.57;69.24;98648.23;263251;1096;115034;-73
2021/07/15 20:34:50;;;;;;;20.57;14.20;;;;;;;24.51;68.99;98662.61;263026;1095;115095;-73
2021/07/15 20:39:55;;;;;;;20.20;14.40;;;;;;;24.49;69.66;98675.55;262157;1094;115125;-72
2021/07/15 20:45:00;;;;;;;24.20;15.23;;;;;;;24.50;69.58;98701.74;262582;1094;115038;-73
2021/07/15 20:50:04;;;;;;;22.48;16.23;;;;;;;24.47;69.60;98719.28;263002;1095;115000;-75
2021/07/15 20:55:10;;;;;;;19.87;15.27;;;;;;;24.48;69.76;98739.17;261897;1095;115222;-71
2021/07/15 21:00:16;;;;;;;20.60;14.57;;;;;;;24.48;69.79;98750.89;261543;1093;114749;-73
2021/07/15 21:05:20;;;;;;;26.60;16.07;;;;;;;24.50;69.81;98758.88;263165;1096;114863;-70
2021/07/15 21:10:25;;;;;;;23.70;16.67;;;;;;;24.52;69.78;98762.23;261556;1095;115397;-72
2021/07/15 21:15:28;;;;;;;26.20;16.90;;;;;;;24.49;69.64;98757.17;262750;1096;114972;-72
2021/07/15 21:20:32;;;;;;;23.60;15.28;;;;;;;24.46;69.88;98738.53;262994;1093;114965;-71
2021/07/15 21:25:40;;;;;;;22.43;16.40;;;;;;;24.45;69.84;98737.66;263195;1094;115088;-72
2021/07/15 21:30:44;;;;;;;22.13;15.98;;;;;;;24.44;69.96;98732.44;263218;1093;115489;-68
2021/07/15 21:35:48;;;;;;;27.47;17.97;;;;;;;24.43;69.83;98728.03;263197;1095;115386;-69
2021/07/15 21:40:52;;;;;;;22.35;15.33;;;;;;;24.42;70.04;98724.48;263105;1095;115485;-72
2021/07/15 21:45:55;;;;;;;23.58;15.53;;;;;;;24.40;69.95;98714.78;263024;1093;115028;-71
2021/07/15 21:50:59;;;;;;;29.28;16.05;;;;;;;24.38;70.12;98725.84;263262;1094;115071;-72
2021/07/15 21:56:03;;;;;;;21.25;15.40;;;;;;;24.34;70.02;98702.78;263218;1093;114985;-73
2021/07/15 22:01:08;;;;;;;27.63;15.20;;;;;;;24.29;69.99;98713.41;263135;1092;115189;-71
2021/07/15 22:06:16;;;;;;;22.27;15.03;;;;;;;24.25;69.97;98695.76;260854;1094;115430;-71
2021/07/15 22:11:25;;;;;;;24.07;15.63;;;;;;;24.23;69.89;98682.36;261305;1093;114804;-67
2021/07/15 22:16:30;;;;;;;24.60;15.73;;;;;;;24.22;69.86;98686.13;261260;1095;114932;-69
2021/07/15 22:21:49;;;;;;;25.60;15.80;;;;;;;24.15;69.55;98687.93;260291;1095;114869;-71
2021/07/15 22:26:54;;;;;;;16.50;12.60;;;;;;;24.06;69.24;98656.44;260431;1093;114714;-73
2021/07/15 22:31:58;;;;;;;19.97;12.67;;;;;;;23.97;69.15;98638.55;261973;1093;114808;-75
2021/07/15 22:37:04;;;;;;;21.27;13.87;;;;;;;23.92;69.05;98646.44;261005;1096;115007;-74
2021/07/15 22:42:09;;;;;;;17.40;13.27;;;;;;;23.83;69.13;98662.00;261487;1096;114974;-70
2021/07/15 22:47:14;;;;;;;23.00;14.40;;;;;;;23.76;69.21;98675.50;263198;1093;115357;-70
2021/07/15 22:52:19;;;;;;;19.05;13.35;;;;;;;23.69;68.96;98687.32;261747;1095;115087;-72
2021/07/15 22:57:24;;;;;;;22.90;13.17;;;;;;;23.61;68.80;98672.77;262477;1095;115393;-72
2021/07/15 23:02:29;;;;;;;20.13;13.60;;;;;;;23.59;69.15;98653.08;262859;1095;115240;-71
2021/07/15 23:07:40;;;;;;;18.97;14.33;;;;;;;23.55;69.11;98649.06;261148;1094;114856;-70
2021/07/15 23:12:46;;;;;;;21.23;14.10;;;;;;;23.51;69.16;98647.76;260867;1093;115042;-69
2021/07/15 23:17:51;;;;;;;18.60;12.30;;;;;;;23.48;68.95;98642.70;260377;1093;114821;-71